Santa Rosa, CA (95401)

8:39 AM PDT on September 02, 2014 (GMT -0700)
Sierra Meadows | Change Station
CLOSE
Current Station
Personal Weather Station
Location: Santa Rosa, CA
Elevation: 105 ft
Nearby Weather Stations

Elev 105 ft 38.44 °N, 122.76 °W | Updated 26 seconds ago

Fog
Fog
58.5 °F
Feels Like 58.5 °F
N
0.0
Wind Variable Wind from ESE

Today
High -- | Low -- °F
--% Chance of Precip.
Yesterday
High -- | Low -- °F
Precip. -- in
6:41 AM 7:39 PM
First Quarter, 52% visible
Pressure 29.80 in
Visibility 0.2 miles
Clouds
Dew Point Not available.
Humidity Not available.
Rainfall 0.00 in
Snow Depth Not available.
UV Not available.
Pollen 7.30 out of 12
Air Quality Not available.
Flu Activity Not available.
METAR KSTS 021453Z 00000KT 1/4SM FG VV002 12/12 A2981 RMK AO2 SLP089 T01220122 53007

More Conditions Fewer Conditions

Pressure 29.80 in
Visibility 0.2 miles
Clouds
Dew Point Not available.
Humidity Not available.
Rainfall 0.00 in
Snow Depth Not available.
UV Not available.
Pollen 7.30 out of 12
Air Quality Not available.
Flu Activity Not available.
METAR KSTS 021453Z 00000KT 1/4SM FG VV002 12/12 A2981 RMK AO2 SLP089 T01220122 53007

More Conditions Fewer Conditions

10-Day Weather Forecast

Almanac

Astronomy

Sep. 02, 2014 Rise Set
Actual Time 6:41 AM PDT 7:39 PM PDT
Civil Twilight 6:14 AM PDT 8:06 PM PDT
Nautical Twilight 5:42 AM PDT 8:38 PM PDT
Astronomical Twilight 5:08 AM PDT 9:11 PM PDT
Moon 2:25 PM PDT No Moon Set
Length of Visible Light 13h 51m
Length of Day
12h 57m
Tomorrow will be 2m 24s shorter.
First Quarter, 52% of the Moon is Illuminated
Today
First Quarter
Sep 8
Full
Sep 15
Last Quarter
Sep 24
New
Oct 1
First Quarter

Today's Extremes

State Highs State Lows

Community

WunderPhotos

Upload Photos

1,749,700 photos uploaded!

Nearby

Air Quality

  Air Quality AQ Index Pollutant
Tuesday Good
PM2.5
Wednesday Good
PM2.5
Thursday Good
PM2.5
Friday Good
PM2.5

Snow Depth

Station Depth Elevation
CSS Lab 2 in 6900 ft
Rubicon #2 0 in 7500 ft
Echo Peak 1 in 7800 ft
Fallen Leaf 0 in 6300 ft
Forestdale Creek 0 in 8029 ft

Earthquake Activity

City Distance Mag. Time & Date
Yountville, California 20 miles 2.6 1:15 PM PDT
2014-09-01
Gilroy, California 123 miles 3.5 9:10 AM PDT
2014-09-01
Green Valley, California 35 miles 2.5 6:37 AM PDT
2014-08-31
Napa, California 27 miles 3.2 1:56 AM PDT
2014-08-31
Minimum magnitude displayed is 2.5.

Coastal Water Temperatures

Place Temperature
Point Reyes, CA 57.9 °F
Arena Cove, CA 53.1 °F
San Francisco, CA 64.9 °F
Richmond, CA 68.0 °F

Nearby Weather Stations